Airfield :
LOGIN :

Register | Disclaimer

   EN    FR    IT 

 










Legend :    VFR   Marginal VFR   IFR   Intensive IFR   Very Intensive IFR
Visi :
Ceiling :
>= 8 km
>= 3000ft
5 to 8 km
1000 to 3000 ft
1500m to 5 km
500 to 1000 ft
800 to 1500m
200 to 500 ft
< 800m
< 200 ft
Symbols :   Thunderstorms  Fog  Heavy snow  Heavy precipitations  Wind > 20 kt
SIGMETs :     Misc.  Thunderstorms  Icing  Turbulence  Mountain Waves  Volcanic Ashes







- Airport Elevation : 650 ft
- IATA code : ZJI


LSZL - Locarno

CURRENT METAR :
  • 151220Z 24003KT 200V260 8000 FEW040 BKN060 18/14 Q1019 RMK BLU

EXPIRED METARs :
  • 151150Z VRB01KT 9999 FEW045 SCT080 17/13 Q1019 RMK BLU+
  • 151120Z 25004KT 9999 FEW058 SCT080 17/13 Q1019 RMK BLU+
  • 151050Z 25005KT 9999 FEW045 SCT080 18/12 Q1020 RMK BLU+
  • 150950Z VRB02KT 9999 FEW045 SCT100 17/13 Q1020 RMK BLU+

TAF TAF LSZL
Valid from the 15 at 12:00 until the 15 at 21:00 UTC


151125Z 1512/1521 25005KT 9999 FEW045 SCT080
PROB40
TEMPO 1517/1521 4500 SHRA
No reported NOTAMs for that airfield.



MET'MAP, your aeronautical weather chart ! - Copyright ORBIFLY December 2007 - Disclaimer

ORBIFLY MET'MAP TEAM :

Programming & Development : Alexandra Zaïnal
Concept & Development : Baudouin d'Aumeries
Co-Development & Prog : Marc-Olivier Méhu
Technical & hardware support : Manuel Goepfert

Contact : metmap@orbifly.com




SOURCES & CREDITS :

   NOAA